Flight Track Log - Related Links

Times and Time Zones

All times are in EDT time to prevent confusion due to time zone crossing. See the AWE1195 flight status page for this flight to view local times or setup timezone preferences in your user account.

Time Position Orientation Groundspeed Altitude Reporting Facility
EDT Latitude Longitude Course Direction KTS MPH feet Rate Location/Type
Mon 11:02:17 AM 39.8574 -75.2905 250° West 173 199 1,500  Level FlightAware ADS-B
Mon 11:02:35 AM 39.8523 -75.3089 249° West 184 212 1,900 1,091 Climbing FlightAware ADS-B
Mon 11:02:50 AM 39.8475 -75.3255 250° West 197 227 2,100 774 Climbing FlightAware ADS-B
Mon 11:03:06 AM 39.8426 -75.3433 251° West 210 242 2,300 750 Climbing FlightAware ADS-B
Mon 11:03:22 AM 39.8370 -75.3639 251° West 224 258 2,500 750 Climbing FlightAware ADS-B
Mon 11:03:38 AM 39.8314 -75.3850 252° West 242 278 2,700 1,161 Climbing FlightAware ADS-B
Mon 11:03:53 AM 39.8259 -75.4066 252° West 250 288 3,100 2,063 Climbing FlightAware ADS-B
Mon 11:04:10 AM 39.8198 -75.4304 251° West 252 290 3,800 2,250 Climbing FlightAware ADS-B
Mon 11:04:25 AM 39.8140 -75.4525 251° West 257 296 4,300 2,000 Climbing FlightAware ADS-B
Mon 11:04:37 AM 39.8093 -75.4702 252° West 259 298 4,700 2,211 Climbing FlightAware ADS-B
Mon 11:04:44 AM 39.8064 -75.4816 257° West 261 300 5,000 2,182 Climbing FlightAware ADS-B
Mon 11:04:48 AM 39.8055 -75.4867 265° West 259 298 5,100 2,000 Climbing FlightAware ADS-B
Mon 11:04:53 AM 39.8050 -75.4941 273° West 256 295 5,300 2,250 Climbing FlightAware ADS-B
Mon 11:04:56 AM 39.8052 -75.4989 280° West 254 292 5,400 2,000 Climbing FlightAware ADS-B
Mon 11:04:59 AM 39.8059 -75.5041 291° West 252 290 5,500 1,500 Climbing FlightAware ADS-B
Mon 11:05:04 AM 39.8077 -75.5102 300° West 251 289 5,600 2,000 Climbing FlightAware ADS-B
Mon 11:05:08 AM 39.8101 -75.5156 310° West 249 287 5,800 2,250 Climbing FlightAware ADS-B
Mon 11:05:12 AM 39.8134 -75.5207 317° Northwest 248 285 5,900 2,333 Climbing FlightAware ADS-B
Mon 11:05:26 AM 39.8253 -75.5349 315° West 247 284 6,500 2,250 Climbing FlightAware ADS-B
Mon 11:05:36 AM 39.8329 -75.5447 312° West 248 285 6,800 1,920 Climbing FlightAware ADS-B
Mon 11:05:51 AM 39.8447 -75.5616 311° West 250 288 7,300 2,063 Climbing FlightAware ADS-B
Mon 11:06:08 AM 39.8578 -75.5811 311° West 254 292 7,900 1,875 Climbing FlightAware ADS-B
Mon 11:06:23 AM 39.8696 -75.5988 311° West 259 298 8,300 1,600 Climbing FlightAware ADS-B
Mon 11:06:38 AM 39.8814 -75.6162 312° West 263 303 8,700 2,000 Climbing FlightAware ADS-B
Mon 11:06:53 AM 39.8941 -75.6348 311° West 264 304 9,300 1,935 Climbing FlightAware ADS-B
Mon 11:07:09 AM 39.9069 -75.6538 309° West 269 310 9,700 1,429 Climbing FlightAware ADS-B
Mon 11:07:14 AM 39.9107 -75.6599 305° West 271 312 9,800 1,500 Climbing FlightAware ADS-B
Mon 11:07:17 AM 39.9130 -75.6642 298° West 273 314 9,900 1,714 Climbing FlightAware ADS-B
Mon 11:07:21 AM 39.9151 -75.6693 288° West 274 315 10,000 1,500 Climbing FlightAware ADS-B
Mon 11:07:25 AM 39.9170 -75.6769 279° West 275 316 10,100 1,800 Climbing FlightAware ADS-B
Mon 11:07:31 AM 39.9180 -75.6852 268° West 276 318 10,300 1,846 Climbing FlightAware ADS-B
Mon 11:08:04 AM 39.9167 -75.7411 269° West 286 329 11,300 1,385 Climbing FlightAware ADS-B
Mon 11:08:36 AM 39.9158 -75.7982 269° West 307 353 11,800 1,143 Climbing FlightAware ADS-B
Mon 11:09:07 AM 39.9147 -75.8588 268° West 322 371 12,500 1,500 Climbing FlightAware ADS-B
Mon 11:09:40 AM 39.9133 -75.9217 268° West 330 380 13,400 1,714 Climbing FlightAware ADS-B
Mon 11:10:10 AM 39.9120 -75.9819 268° West 330 380 14,300 1,700 Climbing FlightAware ADS-B
Mon 11:10:40 AM 39.9107 -76.0428 268° West 336 387 15,100 1,869 Climbing FlightAware ADS-B
Mon 11:11:11 AM 39.9093 -76.1050 268° West 331 381 16,200 1,905 Climbing FlightAware ADS-B
Mon 11:11:43 AM 39.9078 -76.1693 272° West 335 386 17,100 1,545 Climbing FlightAware ADS-B
Mon 11:12:17 AM 39.9100 -76.2369 273° West 340 391 17,900 1,500 Climbing FlightAware ADS-B
Mon 11:12:47 AM 39.9126 -76.2983 273° West 341 392 18,700 1,279 Climbing FlightAware ADS-B
Mon 11:13:18 AM 39.9153 -76.3625 273° West 350 403 19,200 885 Climbing FlightAware ADS-B
Mon 11:13:48 AM 39.9179 -76.4259 273° West 362 417 19,600 700 Climbing FlightAware ADS-B
Mon 11:14:18 AM 39.9207 -76.4945 273° West 376 433 19,900 677 Climbing FlightAware ADS-B
Mon 11:14:50 AM 39.9236 -76.5682 273° West 387 445 20,300 1,091 Climbing FlightAware ADS-B
Mon 11:15:24 AM 39.9268 -76.6469 273° West 386 444 21,100 1,364 Climbing FlightAware ADS-B
Mon 11:15:56 AM 39.9296 -76.7217 273° West 388 447 21,800 1,569 Climbing FlightAware ADS-B
Mon 11:16:29 AM 39.9326 -76.7978 273° West 380 437 22,800 1,500 Climbing FlightAware ADS-B
Mon 11:17:00 AM 39.9354 -76.8688 273° West 383 441 23,400 1,015 Climbing FlightAware ADS-B
Mon 11:17:34 AM 39.9383 -76.9473 273° West 387 445 23,900 1,125 Climbing FlightAware ADS-B
Mon 11:18:04 AM 39.9409 -77.0183 273° West 384 442 24,600 1,031 Climbing FlightAware ADS-B
Mon 11:18:38 AM 39.9437 -77.0959 273° West 387 445 25,000 779 Climbing FlightAware ADS-B
Mon 11:19:21 AM 39.9473 -77.1979 273° West 392 451 25,600 690 Climbing FlightAware ADS-B
Mon 11:20:05 AM 39.9509 -77.3014 272° West 397 457 26,000 720 Climbing FlightAware ADS-B
Mon 11:20:36 AM 39.9533 -77.3761 273° West 398 458 26,500 800 Climbing FlightAware ADS-B
Mon 11:21:20 AM 39.9569 -77.4818 273° West 402 463 27,000 706 Climbing FlightAware ADS-B
Mon 11:22:18 AM 39.9614 -77.6064 273° West 407 468 27,700 915 Climbing Cleveland Center
Mon 11:23:18 AM 39.9672 -77.7522 272° West 407 468 28,800 1,050 Climbing Cleveland Center
Mon 11:24:18 AM 39.9708 -77.8931 273° West 401 461 29,800 1,000 Climbing Cleveland Center
Mon 11:25:18 AM 39.9761 -78.0364 272° West 401 461 30,800 900 Climbing Cleveland Center
Mon 11:26:18 AM 39.9792 -78.1772 272° West 401 461 31,600 600 Climbing Cleveland Center
Mon 11:27:18 AM 39.9822 -78.3289 272° West 396 456 32,000 200 Climbing Cleveland Center
Mon 11:28:18 AM 39.9850 -78.4669 271° West 391 450 32,000  Level Cleveland Center
Mon 11:29:18 AM 39.9875 -78.6106 271° West 391 450 32,000  Level Cleveland Center
Mon 11:30:18 AM 39.9897 -78.7486 271° West 386 444 32,000  Level Cleveland Center
Mon 11:31:18 AM 39.9919 -78.8867 275° West 386 444 32,000  Level Cleveland Center
Mon 11:32:18 AM 40.0000 -79.0139 271° West 386 444 32,000  Level Cleveland Center
Mon 11:33:18 AM 40.0019 -79.1547 272° West 386 444 32,000  Level Cleveland Center
Mon 11:34:18 AM 40.0058 -79.2956 270° West 386 444 32,000  Level Cleveland Center
Mon 11:35:18 AM 40.0050 -79.4367 272° West 386 444 32,000  Level Cleveland Center
Mon 11:36:18 AM 40.0086 -79.5803 272° West 391 450 32,000  Level Cleveland Center
Mon 11:37:18 AM 40.0119 -79.7267 269° West 396 456 32,000  Level Cleveland Center
Mon 11:38:18 AM 40.0108 -79.8675 273° West 402 463 32,000  Level Cleveland Center
Mon 11:39:18 AM 40.0158 -80.0139 270° West 402 463 32,000  Level Cleveland Center
Mon 11:40:18 AM 40.0164 -80.1547 271° West 402 463 32,000  Level Cleveland Center
Mon 11:41:18 AM 40.0189 -80.2983 269° West 402 463 32,000  Level Cleveland Center
Mon 11:42:18 AM 40.0169 -80.4447 271° West 402 463 32,000  Level Cleveland Center
Mon 11:43:18 AM 40.0192 -80.5886 270° West 402 463 32,000  Level Cleveland Center
Mon 11:44:18 AM 40.0192 -80.7322 268° West 402 463 32,000  Level Cleveland Center
Mon 11:45:18 AM 40.0147 -80.8786 263° West 402 463 32,000  Level Cleveland Center
Mon 11:46:18 AM 39.9994 -81.0356 265° West 402 463 32,000  Level Cleveland Center
Mon 11:46:57 AM 39.9928 -81.1292 264° West 398 458 32,000  Level Indianapolis Center
Mon 11:47:57 AM 39.9828 -81.2622 264° West 392 451 32,000  Level Indianapolis Center
Mon 11:48:57 AM 39.9711 -81.4061 264° West 401 461 32,000  Level Indianapolis Center
Mon 11:49:57 AM 39.9592 -81.5664 262° West 413 475 32,000 -50 Level Indianapolis Center
Mon 11:50:57 AM 39.9447 -81.7047 265° West 396 456 31,900 -50 Descending Indianapolis Center
Mon 11:51:57 AM 39.9344 -81.8486 263° West 396 456 31,900  Level Indianapolis Center
Mon 11:52:57 AM 39.9236 -81.9706 263° West 391 450 31,900 50 Level Indianapolis Center
Mon 11:53:57 AM 39.9108 -82.1117 263° West 391 450 32,000 50 Climbing Indianapolis Center
Mon 11:54:57 AM 39.8978 -82.2500 264° West 391 450 32,000  Level Indianapolis Center
Mon 11:55:57 AM 39.8867 -82.3908 263° West 386 444 32,000  Level Indianapolis Center
Mon 11:56:57 AM 39.8736 -82.5292 263° West 393 452 32,000  Level Indianapolis Center
Mon 11:57:57 AM 39.8600 -82.6700 263° West 388 447 32,000 -50 Level Indianapolis Center
Mon 11:58:57 AM 39.8464 -82.8189 263° West 388 447 31,900 -50 Descending Indianapolis Center
Mon 11:59:57 AM 39.8328 -82.9569 264° West 388 447 31,900 50 Level Indianapolis Center
Mon 12:00:57 PM 39.8208 -83.0947 261° West 393 452 32,000 50 Climbing Indianapolis Center
Mon 12:01:57 PM 39.8044 -83.2328 261° West 387 445 32,000  Level Indianapolis Center
Mon 12:02:56 PM 39.7881 -83.3706 265° West 387 445 32,000  Level Indianapolis Center
Mon 12:03:57 PM 39.7778 -83.5164 261° West 400 460 32,000  Level Indianapolis Center
Mon 12:04:57 PM 39.7611 -83.6489 264° West 410 472 32,000  Level Indianapolis Center
Mon 12:05:57 PM 39.7506 -83.7839 262° West 404 465 32,000  Level Indianapolis Center
Mon 12:06:57 PM 39.7356 -83.9242 262° West 404 465 32,000  Level Indianapolis Center
Mon 12:07:57 PM 39.7183 -84.0781 262° West 404 465 32,000  Level Indianapolis Center
Mon 12:08:57 PM 39.7031 -84.2181 262° West 404 465 32,000 -50 Level Indianapolis Center
Mon 12:09:56 PM 39.6875 -84.3611 262° West 398 458 31,900  Descending Indianapolis Center
Mon 12:10:57 PM 39.6719 -84.5039 263° West 403 464 32,000 50 Climbing Indianapolis Center
Mon 12:11:57 PM 39.6583 -84.6467 262° West 408 470 32,000  Level Indianapolis Center
Mon 12:12:57 PM 39.6422 -84.7892 263° West 408 470 32,000  Level Indianapolis Center
Mon 12:13:58 PM 39.6281 -84.9344 260° West 408 470 32,000 50 Level Indianapolis Center
Mon 12:14:57 PM 39.6097 -85.0744 262° West 408 470 32,100 504 Climbing Indianapolis Center
Mon 12:15:57 PM 39.5931 -85.2194 260° West 408 470 33,000 700 Climbing Indianapolis Center
Mon 12:16:57 PM 39.5744 -85.3592 262° West 408 470 33,500 450 Climbing Indianapolis Center
Mon 12:17:57 PM 39.5575 -85.5067 262° West 408 470 33,900 250 Climbing Indianapolis Center
Mon 12:18:57 PM 39.5425 -85.6492 261° West 408 470 34,000 50 Climbing Indianapolis Center
Mon 12:19:57 PM 39.5256 -85.7806 261° West 408 470 34,000  Level Indianapolis Center
Mon 12:20:57 PM 39.5081 -85.9306 260° West 414 476 34,000  Level Indianapolis Center
Mon 12:21:57 PM 39.4883 -86.0781 260° West 420 483 34,000  Level Indianapolis Center
Mon 12:22:57 PM 39.4683 -86.2278 262° West 425 489 34,000  Level Indianapolis Center
Mon 12:23:57 PM 39.4500 -86.3939 260° West 425 489 34,000 50 Level Indianapolis Center
Mon 12:24:57 PM 39.4294 -86.5464 261° West 431 496 34,100  Climbing Indianapolis Center
Mon 12:25:57 PM 39.4111 -86.6933 261° West 426 490 34,000 -50 Descending Indianapolis Center
Mon 12:26:57 PM 39.3925 -86.8403 259° West 426 490 34,000  Level Indianapolis Center
Mon 12:27:57 PM 39.3717 -86.9844 262° West 426 490 34,000  Level Indianapolis Center
Mon 12:29:35 PM 39.3461 -87.2125 260° West 419 482 34,000  Level Kansas City Center
Mon 12:30:35 PM 39.3258 -87.3594 262° West 419 482 34,000  Level Kansas City Center
Mon 12:31:35 PM 39.3094 -87.5033 259° West 419 482 34,000  Level Kansas City Center
Mon 12:32:35 PM 39.2867 -87.6531 260° West 419 482 34,000  Level Kansas City Center
Mon 12:33:35 PM 39.2661 -87.8053 259° West 414 476 34,000  Level Kansas City Center
Mon 12:34:35 PM 39.2431 -87.9522 261° West 414 476 34,000  Level Kansas City Center
Mon 12:35:35 PM 39.2242 -88.1042 259° West 419 482 34,000  Level Kansas City Center
Mon 12:36:35 PM 39.2011 -88.2589 260° West 430 495 34,000  Level Kansas City Center
Mon 12:37:35 PM 39.1817 -88.4078 259° West 430 495 34,000  Level Kansas City Center
Mon 12:38:35 PM 39.1600 -88.5569 258° West 430 495 34,000  Level Kansas City Center
Mon 12:39:35 PM 39.1361 -88.7061 259° West 430 495 34,000  Level Kansas City Center
Mon 12:40:35 PM 39.1142 -88.8578 258° West 430 495 34,000  Level Kansas City Center
Mon 12:41:35 PM 39.0883 -89.0203 260° West 424 488 34,000  Level Kansas City Center
Mon 12:42:35 PM 39.0694 -89.1556 259° West 430 495 34,000  Level Kansas City Center
Mon 12:43:35 PM 39.0433 -89.3206 259° West 439 505 34,000  Level Kansas City Center
Mon 12:44:35 PM 39.0222 -89.4583 260° West 434 499 34,000  Level Kansas City Center
Mon 12:45:35 PM 38.9981 -89.6283 259° West 434 499 34,000  Level Kansas City Center
Mon 12:46:35 PM 38.9764 -89.7658 258° West 434 499 34,000  Level Kansas City Center
Mon 12:47:35 PM 38.9494 -89.9333 259° West 434 499 34,000  Level Kansas City Center
Mon 12:48:35 PM 38.9261 -90.0869 259° West 434 499 34,000  Level Kansas City Center
Mon 12:49:35 PM 38.9025 -90.2378 258° West 434 499 34,000  Level Kansas City Center
Mon 12:50:35 PM 38.8767 -90.3939 260° West 439 505 34,000  Level Kansas City Center
Mon 12:51:35 PM 38.8547 -90.5469 260° West 439 505 34,000  Level Kansas City Center
Mon 12:52:35 PM 38.8325 -90.7003 260° West 444 511 34,000  Level Kansas City Center
Mon 12:53:35 PM 38.8103 -90.8586 260° West 450 518 34,000  Level Kansas City Center
Mon 12:54:35 PM 38.7917 -90.9981 262° West 450 518 34,000  Level Kansas City Center
Mon 12:55:35 PM 38.7753 -91.1506 259° West 445 512 34,000  Level Kansas City Center
Mon 12:56:35 PM 38.7522 -91.3061 260° West 445 512 34,000  Level Kansas City Center
Mon 12:57:35 PM 38.7314 -91.4614 260° West 444 511 34,000  Level Kansas City Center
Mon 12:58:35 PM 38.7103 -91.6167 260° West 444 511 34,000  Level Kansas City Center
Mon 12:59:35 PM 38.6872 -91.7903 260° West 450 518 34,000  Level Kansas City Center
Mon 01:00:35 PM 38.6656 -91.9453 260° West 450 518 34,000  Level Kansas City Center
Mon 01:01:35 PM 38.6439 -92.1031 260° West 450 518 34,000  Level Kansas City Center
Mon 01:02:35 PM 38.6219 -92.2606 259° West 450 518 34,000  Level Kansas City Center
Mon 01:03:35 PM 38.5975 -92.4153 259° West 450 518 34,000  Level Kansas City Center
Mon 01:04:35 PM 38.5731 -92.5728 260° West 450 518 34,000  Level Kansas City Center
Mon 01:05:35 PM 38.5525 -92.7272 259° West 450 518 34,000  Level Kansas City Center
Mon 01:06:35 PM 38.5278 -92.8844 259° West 450 518 34,000  Level Kansas City Center
Mon 01:07:35 PM 38.5047 -93.0414 260° West 450 518 34,000  Level Kansas City Center
Mon 01:08:35 PM 38.4817 -93.2011 258° West 450 518 34,000  Level Kansas City Center
Mon 01:09:35 PM 38.4561 -93.3553 259° West 450 518 34,000  Level Kansas City Center
Mon 01:10:35 PM 38.4303 -93.5175 259° West 450 518 34,000  Level Kansas City Center
Mon 01:11:35 PM 38.4067 -93.6739 258° West 450 518 34,000  Level Kansas City Center
Mon 01:12:35 PM 38.3806 -93.8358 259° West 455 524 34,000  Level Kansas City Center
Mon 01:13:35 PM 38.3561 -93.9922 256° West 460 529 34,000  Level Kansas City Center
Mon 01:14:35 PM 38.3256 -94.1486 258° West 460 529 34,000  Level Kansas City Center
Mon 01:15:35 PM 38.2989 -94.3050 259° West 448 516 34,000  Level Kansas City Center
Mon 01:16:35 PM 38.2761 -94.4506 259° West 454 522 34,000  Level Kansas City Center
Mon 01:17:35 PM 38.2489 -94.6275 258° West 459 528 34,000  Level Kansas City Center
Mon 01:18:35 PM 38.2236 -94.7836 259° West 469 540 34,000  Level Kansas City Center
Mon 01:19:35 PM 38.1981 -94.9447 258° West 469 540 34,000  Level Kansas City Center
Mon 01:20:35 PM 38.1744 -95.0897 258° West 469 540 34,000  Level Kansas City Center
Mon 01:21:35 PM 38.1486 -95.2453 258° West 469 540 34,000  Level Kansas City Center
Mon 01:22:35 PM 38.1181 -95.4272 257° West 475 547 34,000  Level Kansas City Center
Mon 01:23:35 PM 38.0897 -95.5878 258° West 475 547 34,000  Level Kansas City Center
Mon 01:24:35 PM 38.0653 -95.7325 258° West 463 533 34,000  Level Kansas City Center
Mon 01:25:35 PM 38.0364 -95.9008 259° West 463 533 34,000  Level Kansas City Center
Mon 01:26:35 PM 38.0114 -96.0611 258° West 469 540 34,000  Level Kansas City Center
Mon 01:27:35 PM 37.9842 -96.2239 258° West 469 540 34,000  Level Kansas City Center
Mon 01:28:35 PM 37.9569 -96.3811 258° West 469 540 34,000  Level Kansas City Center
Mon 01:29:35 PM 37.9292 -96.5436 258° West 469 540 34,000  Level Kansas City Center
Mon 01:30:35 PM 37.9014 -96.7036 258° West 469 540 34,000  Level Kansas City Center
Mon 01:31:35 PM 37.8778 -96.8450 257° West 469 540 34,000  Level Kansas City Center
Mon 01:32:35 PM 37.8494 -97.0044 257° West 469 540 34,000  Level Kansas City Center
Mon 01:33:35 PM 37.8211 -97.1639 257° West 469 540 34,000  Level Kansas City Center
Mon 01:34:35 PM 37.7922 -97.3258 259° West 469 540 34,000  Level Kansas City Center
Mon 01:35:35 PM 37.7675 -97.4878 256° West 464 534 34,000  Level Kansas City Center
Mon 01:36:35 PM 37.7317 -97.6650 256° West 469 540 34,000  Level Kansas City Center
Mon 01:37:35 PM 37.7003 -97.8186 256° West 469 540 34,000  Level Kansas City Center
Mon 01:38:35 PM 37.6686 -97.9797 257° West 469 540 34,000  Level Kansas City Center
Mon 01:39:35 PM 37.6414 -98.1228 255° West 469 540 34,000  Level Kansas City Center
Mon 01:40:35 PM 37.6072 -98.2864 252° West 474 545 34,000  Level Kansas City Center
Mon 01:41:35 PM 37.5667 -98.4442 254° West 474 545 34,000  Level Kansas City Center
Mon 01:42:35 PM 37.5300 -98.6019 252° West 474 545 34,000  Level Kansas City Center
Mon 01:43:35 PM 37.4844 -98.7750 253° West 474 545 34,000  Level Kansas City Center
Mon 01:44:35 PM 37.4453 -98.9322 252° West 474 545 34,000  Level Kansas City Center
Mon 01:45:35 PM 37.4061 -99.0869 252° West 474 545 34,000  Level Kansas City Center
Mon 01:46:35 PM 37.3642 -99.2464 254° West 474 545 34,000  Level Kansas City Center
Mon 01:47:35 PM 37.3267 -99.4061 250° West 474 545 34,000  Level Kansas City Center
Mon 01:48:35 PM 37.2875 -99.5392 252° West 469 540 34,000  Level Kansas City Center
Mon 01:49:35 PM 37.2403 -99.7161 251° West 474 545 34,000  Level Kansas City Center
Mon 01:50:35 PM 37.1981 -99.8697 252° West 474 545 34,000  Level Kansas City Center
Mon 01:51:35 PM 37.1600 -100.0156 251° West 474 545 34,000  Level Kansas City Center
Mon 01:52:35 PM 37.1172 -100.1714 253° West 474 545 34,000  Level Kansas City Center
Mon 01:53:35 PM 37.0736 -100.3453 251° West 474 545 34,000  Level Kansas City Center
Mon 01:54:35 PM 37.0303 -100.5033 251° West 474 545 34,000  Level Kansas City Center
Mon 01:55:35 PM 36.9867 -100.6586 251° West 474 545 34,000  Level Kansas City Center
Mon 01:56:35 PM 36.9481 -100.8011 251° West 479 551 34,000  Level Kansas City Center
Mon 01:57:35 PM 36.9011 -100.9739 251° West 479 551 34,000  Level Kansas City Center
Mon 01:58:35 PM 36.8569 -101.1311 251° West 479 551 34,000  Level Kansas City Center
Mon 02:00:20 PM 36.7803 -101.4019 251° West 454 522 34,000  Level Albuquerque Center
Mon 02:01:20 PM 36.7375 -101.5556 250° West 462 532 34,000  Level Albuquerque Center
Mon 02:02:20 PM 36.6964 -101.6961 251° West 473 544 34,000  Level Albuquerque Center
Mon 02:03:20 PM 36.6533 -101.8492 251° West 473 544 34,000 50 Level Albuquerque Center
Mon 02:04:20 PM 36.6047 -102.0208 252° West 478 550 34,100  Climbing Albuquerque Center
Mon 02:05:20 PM 36.5639 -102.1789 249° West 478 550 34,000 -50 Descending Albuquerque Center
Mon 02:06:20 PM 36.5200 -102.3239 250° West 473 544 34,000  Level Albuquerque Center
Mon 02:07:20 PM 36.4761 -102.4767 249° West 468 539 34,000  Level Albuquerque Center
Mon 02:08:20 PM 36.4300 -102.6292 250° West 473 544 34,000  Level Albuquerque Center
Mon 02:09:20 PM 36.3858 -102.7817 249° West 473 544 34,000  Level Albuquerque Center
Mon 02:10:20 PM 36.3394 -102.9286 250° West 473 544 34,000  Level Albuquerque Center
Mon 02:11:20 PM 36.2947 -103.0781 251° West 467 537 34,000  Level Albuquerque Center
Mon 02:12:20 PM 36.2522 -103.2350 250° West 474 545 34,000  Level Albuquerque Center
Mon 02:13:20 PM 36.2072 -103.3867 249° West 474 545 34,000  Level Albuquerque Center
Mon 02:14:20 PM 36.1600 -103.5383 248° West 474 545 34,000  Level Albuquerque Center
Mon 02:15:20 PM 36.1125 -103.6869 250° West 474 545 34,000  Level Albuquerque Center
Mon 02:16:20 PM 36.0669 -103.8383 249° West 474 545 34,000  Level Albuquerque Center
Mon 02:17:20 PM 36.0250 -103.9711 249° West 474 545 34,000  Level Albuquerque Center
Mon 02:18:20 PM 35.9789 -104.1219 249° West 474 545 34,000  Level Albuquerque Center
Mon 02:19:20 PM 35.9308 -104.2753 249° West 474 545 34,000  Level Albuquerque Center
Mon 02:20:20 PM 35.8844 -104.4233 249° West 469 540 34,000 50 Level Albuquerque Center
Mon 02:21:20 PM 35.8381 -104.5736 249° West 469 540 34,100  Climbing Albuquerque Center
Mon 02:22:20 PM 35.7914 -104.7236 248° West 475 547 34,000 -50 Descending Albuquerque Center
Mon 02:23:20 PM 35.7444 -104.8686 245° Southwest 475 547 34,000  Level Albuquerque Center
Mon 02:24:20 PM 35.6889 -105.0136 231° Southwest 470 541 34,000  Level Albuquerque Center
Mon 02:25:20 PM 35.6117 -105.1308 222° Southwest 462 532 34,000  Level Albuquerque Center
Mon 02:26:20 PM 35.5094 -105.2433 216° Southwest 451 519 34,000  Level Albuquerque Center
Mon 02:27:20 PM 35.4108 -105.3325 216° Southwest 451 519 34,000  Level Albuquerque Center
Mon 02:28:20 PM 35.3142 -105.4189 228° Southwest 445 512 34,000  Level Albuquerque Center
Mon 02:29:20 PM 35.2306 -105.5328 249° West 451 519 34,000 50 Level Albuquerque Center
Mon 02:30:20 PM 35.1844 -105.6764 265° West 451 519 34,100  Climbing Albuquerque Center
Mon 02:31:20 PM 35.1742 -105.8314 266° West 453 521 34,000 -50 Descending Albuquerque Center
Mon 02:32:20 PM 35.1656 -105.9867 267° West 461 531 34,000  Level Albuquerque Center
Mon 02:33:20 PM 35.1589 -106.1392 267° West 459 528 34,000  Level Albuquerque Center
Mon 02:34:20 PM 35.1519 -106.2942 265° West 459 528 34,000 50 Level Albuquerque Center
Mon 02:35:20 PM 35.1408 -106.4494 267° West 459 528 34,100  Climbing Albuquerque Center
Mon 02:36:20 PM 35.1356 -106.5864 265° West 466 536 34,000 -50 Descending Albuquerque Center
Mon 02:37:20 PM 35.1239 -106.7567 266° West 456 525 34,000  Level Albuquerque Center
Mon 02:38:20 PM 35.1161 -106.9067 267° West 456 525 34,000  Level Albuquerque Center
Mon 02:39:20 PM 35.1083 -107.0617 266° West 456 525 34,000 50 Level Albuquerque Center
Mon 02:40:20 PM 35.1003 -107.1986 266° West 456 525 34,100  Climbing Albuquerque Center
Mon 02:41:20 PM 35.0900 -107.3664 265° West 461 531 34,000 -50 Descending Albuquerque Center
Mon 02:42:20 PM 35.0794 -107.5186 264° West 455 524 34,000  Level Albuquerque Center
Mon 02:43:20 PM 35.0667 -107.6733 249° West 460 529 34,000  Level Albuquerque Center
Mon 02:44:20 PM 35.0267 -107.7975 245° Southwest 454 522 34,000  Level Albuquerque Center
Mon 02:45:20 PM 34.9694 -107.9492 249° West 449 517 34,000  Level Albuquerque Center
Mon 02:46:20 PM 34.9250 -108.0908 262° West 449 517 34,000  Level Albuquerque Center
Mon 02:47:20 PM 34.9072 -108.2425 263° West 454 522 34,000  Level Albuquerque Center
Mon 02:48:20 PM 34.8914 -108.3944 262° West 454 522 34,000  Level Albuquerque Center
Mon 02:49:20 PM 34.8733 -108.5486 261° West 460 529 34,000  Level Albuquerque Center
Mon 02:50:20 PM 34.8528 -108.7000 262° West 460 529 34,000  Level Albuquerque Center
Mon 02:51:20 PM 34.8344 -108.8492 261° West 465 535 34,000  Level Albuquerque Center
Mon 02:52:20 PM 34.8158 -108.9981 262° West 460 529 34,000  Level Albuquerque Center
Mon 02:53:20 PM 34.7992 -109.1444 261° West 455 524 34,000  Level Albuquerque Center
Mon 02:54:20 PM 34.7803 -109.2906 261° West 450 518 34,000  Level Albuquerque Center
Mon 02:55:20 PM 34.7611 -109.4342 262° West 445 512 34,000  Level Albuquerque Center
Mon 02:56:20 PM 34.7439 -109.5831 262° West 445 512 34,000  Level Albuquerque Center
Mon 02:57:20 PM 34.7289 -109.7139 257° West 445 512 34,000  Level Albuquerque Center
Mon 02:58:20 PM 34.6983 -109.8722 247° West 451 519 34,000  Level Albuquerque Center
Mon 02:59:20 PM 34.6494 -110.0147 246° West 446 513 34,000 -150 Level Albuquerque Center
Mon 03:00:20 PM 34.6006 -110.1494 246° West 446 513 33,700 -800 Descending Albuquerque Center
Mon 03:01:20 PM 34.5558 -110.2739 245° Southwest 446 513 32,400 -1,550 Descending Albuquerque Center
Mon 03:02:20 PM 34.5044 -110.4056 245° Southwest 446 513 30,600 -1,800 Descending Albuquerque Center
Mon 03:03:20 PM 34.4575 -110.5297 245° Southwest 436 502 28,800 -1,950 Descending Albuquerque Center
Mon 03:04:20 PM 34.4103 -110.6539 245° Southwest 417 480 26,700 -2,100 Descending Albuquerque Center
Mon 03:05:20 PM 34.3631 -110.7753 232° Southwest 411 473 24,600 -2,100 Descending Albuquerque Center
Mon 03:06:20 PM 34.2975 -110.8756 226° Southwest 393 452 22,500 -2,000 Descending Albuquerque Center
Mon 03:07:20 PM 34.2261 -110.9656 227° Southwest 386 444 20,600 -1,900 Descending Albuquerque Center
Mon 03:08:20 PM 34.1522 -111.0603 226° Southwest 371 427 18,700 -1,900 Descending Albuquerque Center
Mon 03:09:20 PM 34.0847 -111.1450 227° Southwest 360 414 16,800 -1,750 Descending Albuquerque Center
Mon 03:10:20 PM 34.0217 -111.2272 227° Southwest 354 407 15,200 -1,600 Descending Albuquerque Center
Mon 03:11:20 PM 33.9606 -111.3069 226° Southwest 344 396 13,600 -1,550 Descending Albuquerque Center
Mon 03:12:20 PM 33.8975 -111.3867 219° Southwest 332 382 12,100 -1,438 Descending Albuquerque Center
Mon 03:13:21 PM 33.8333 -111.4500 212° Southwest 288 331 10,700 -1,438 Descending Phoenix TRACON
Mon 03:14:21 PM 33.7667 -111.5000 212° Southwest 274 315 9,200 -1,286 Descending Phoenix TRACON
Mon 03:15:27 PM 33.7000 -111.5500 220° Southwest 276 318 8,000 -600 Descending Phoenix TRACON
Mon 03:16:21 PM 33.6500 -111.6000 220° Southwest 239 275 8,000 -579 Level Phoenix TRACON
Mon 03:17:21 PM 33.6000 -111.6500 209° Southwest 233 268 6,900 -1,200 Descending Phoenix TRACON
Mon 03:18:21 PM 33.5500 -111.6833 220° Southwest 229 264 5,600 -1,150 Descending Phoenix TRACON
Mon 03:19:21 PM 33.5000 -111.7333 231° Southwest 192 221 4,600 -800 Descending Phoenix TRACON
Mon 03:20:21 PM 33.4667 -111.7833 248° West 186 214 4,000 -800 Descending Phoenix TRACON
Mon 03:21:21 PM 33.4500 -111.8333 248° West 184 212 3,000 -1,000 Descending Phoenix TRACON

Login

Don't have an account? Register now (free) for customized features, flight alerts, and more!